Time;durP1;ratioP1;P1;durP2;ratioP2;P2;SDS_P1;SDS_P2;PMS_P1;PMS_P2;Temp;Humidity;BMP_temperature;BMP_pressure;BME280_temperature;BME280_humidity;BME280_pressure;Samples;Min_cycle;Max_cycle;Signal;HPM_P1;HPM_P2
2021/05/29 00:01:11;;;;;;;3.67;2.42;;;13.60;74.70;;;;;;5073564;28;20052;-73
2021/05/29 00:03:37;;;;;;;4.97;2.72;;;13.60;75.20;;;;;;5074508;28;20033;-74
2021/05/29 00:06:03;;;;;;;6.35;3.00;;;13.60;75.50;;;;;;5057559;28;20456;-73
2021/05/29 00:08:29;;;;;;;7.25;3.10;;;13.60;75.90;;;;;;5057702;28;20430;-74
2021/05/29 00:10:56;;;;;;;8.60;3.70;;;13.60;76.50;;;;;;5075804;28;20025;-74
2021/05/29 00:13:23;;;;;;;8.25;3.42;;;13.50;76.80;;;;;;5075550;28;20031;-73
2021/05/29 00:15:50;;;;;;;9.07;4.05;;;13.40;77.10;;;;;;5075329;28;20119;-73
2021/05/29 00:18:16;;;;;;;8.20;3.67;;;13.40;77.40;;;;;;5074033;28;20028;-73
2021/05/29 00:20:41;;;;;;;8.63;3.90;;;13.40;78.00;;;;;;5074170;28;20029;-73
2021/05/29 00:23:08;;;;;;;7.55;4.30;;;13.30;78.00;;;;;;5073723;28;20028;-74
2021/05/29 00:25:35;;;;;;;8.43;4.32;;;13.30;78.60;;;;;;5074796;28;20036;-79
2021/05/29 00:28:00;;;;;;;6.93;4.20;;;13.20;78.10;;;;;;5073518;28;20028;-79
2021/05/29 00:30:26;;;;;;;7.70;4.18;;;13.20;78.50;;;;;;5074852;28;20074;-79
2021/05/29 00:32:52;;;;;;;8.18;4.57;;;13.20;78.80;;;;;;5073597;28;20029;-79
2021/05/29 00:35:18;;;;;;;10.55;4.38;;;13.10;78.90;;;;;;5073483;28;20025;-78
2021/05/29 00:37:44;;;;;;;7.40;4.43;;;13.10;79.30;;;;;;5074357;28;20103;-79
2021/05/29 00:40:11;;;;;;;7.47;4.75;;;13.10;79.30;;;;;;5073280;28;20029;-79
2021/05/29 00:42:37;;;;;;;6.50;4.27;;;13.00;79.00;;;;;;5056756;28;20024;-79
2021/05/29 00:45:05;;;;;;;10.60;5.60;;;13.00;79.80;;;;;;5073354;28;20078;-78
2021/05/29 00:47:31;;;;;;;9.57;4.57;;;13.00;79.80;;;;;;5073593;28;20028;-79
2021/05/29 00:49:59;;;;;;;13.63;5.60;;;12.90;79.70;;;;;;5072535;28;20036;-78
2021/05/29 00:52:25;;;;;;;10.27;5.57;;;12.90;80.00;;;;;;5064118;28;20036;-78
2021/05/29 00:54:52;;;;;;;12.83;5.73;;;12.90;80.10;;;;;;5073989;28;20028;-78
2021/05/29 00:57:18;;;;;;;10.50;5.63;;;12.80;80.10;;;;;;5073560;28;20491;-78
2021/05/29 00:59:44;;;;;;;10.77;5.35;;;12.70;80.20;;;;;;5074160;28;20098;-78
2021/05/29 01:02:13;;;;;;;13.37;5.63;;;12.70;80.70;;;;;;5072688;28;20008;-78
2021/05/29 01:04:39;;;;;;;14.03;5.97;;;12.80;80.80;;;;;;5056075;28;20016;-78
2021/05/29 01:07:10;;;;;;;9.83;5.00;;;12.70;80.80;;;;;;5073907;28;20047;-78
2021/05/29 01:09:37;;;;;;;10.07;5.43;;;12.70;81.10;;;;;;5073841;28;20036;-79
2021/05/29 01:12:05;;;;;;;13.00;6.10;;;12.60;81.30;;;;;;5072134;28;20495;-78
2021/05/29 01:14:31;;;;;;;9.47;5.13;;;12.60;81.60;;;;;;5039337;28;20052;-79
2021/05/29 01:17:00;;;;;;;13.40;6.10;;;12.60;81.70;;;;;;5073683;28;20028;-79
2021/05/29 01:19:27;;;;;;;10.40;5.63;;;12.60;81.80;;;;;;5072565;28;20033;-79
2021/05/29 01:21:53;;;;;;;10.23;4.93;;;12.70;82.00;;;;;;5072644;28;20028;-79
2021/05/29 01:24:20;;;;;;;10.90;5.50;;;12.60;82.10;;;;;;5072224;28;20032;-79
2021/05/29 01:26:47;;;;;;;8.93;4.47;;;12.60;82.30;;;;;;5073590;28;20050;-79
2021/05/29 01:29:14;;;;;;;8.67;4.57;;;12.60;82.60;;;;;;5055914;28;20025;-79
2021/05/29 01:31:42;;;;;;;8.67;4.93;;;12.50;82.60;;;;;;5073603;28;20028;-79
2021/05/29 01:34:11;;;;;;;9.63;5.00;;;12.50;82.40;;;;;;5073749;28;20033;-78
2021/05/29 01:36:38;;;;;;;9.43;4.17;;;12.40;82.30;;;;;;5072098;28;20039;-79
2021/05/29 01:39:06;;;;;;;7.97;4.43;;;12.40;82.00;;;;;;5073357;28;20405;-78
2021/05/29 01:41:32;;;;;;;7.57;3.27;;;12.40;82.40;;;;;;5072144;28;20472;-78
2021/05/29 01:43:58;;;;;;;9.30;3.70;;;12.40;82.30;;;;;;5072279;28;20029;-79
2021/05/29 01:46:24;;;;;;;7.07;3.70;;;12.40;82.30;;;;;;5072071;28;20103;-78
2021/05/29 01:48:50;;;;;;;6.67;3.03;;;12.30;82.20;;;;;;5073294;28;20514;-78
2021/05/29 01:51:18;;;;;;;6.03;2.80;;;12.30;82.20;;;;;;5055632;28;20074;-79
2021/05/29 01:53:44;;;;;;;8.50;3.20;;;12.30;82.20;;;;;;5072115;28;20016;-79
2021/05/29 01:56:11;;;;;;;5.07;2.50;;;12.30;82.00;;;;;;5072256;28;20029;-79
2021/05/29 01:58:40;;;;;;;7.93;2.90;;;12.10;81.90;;;;;;5072161;28;20036;-79
2021/05/29 02:01:08;;;;;;;7.07;2.50;;;12.20;81.90;;;;;;5072128;28;20029;-79
2021/05/29 02:03:35;;;;;;;4.10;2.03;;;12.20;81.80;;;;;;5072097;28;20131;-78
2021/05/29 02:06:01;;;;;;;6.27;2.67;;;12.10;81.70;;;;;;5072008;28;20028;-79
2021/05/29 02:08:27;;;;;;;5.50;2.20;;;12.10;81.60;;;;;;5073197;28;20033;-79
2021/05/29 02:10:52;;;;;;;5.60;2.03;;;12.10;81.60;;;;;;5055350;28;20032;-78
2021/05/29 02:13:24;;;;;;;8.33;2.73;;;12.00;81.60;;;;;;5073102;28;20107;-74
2021/05/29 02:15:50;;;;;;;6.47;2.37;;;11.90;81.60;;;;;;5073203;28;20027;-78
2021/05/29 02:18:16;;;;;;;6.73;2.60;;;11.90;81.60;;;;;;5073063;28;20028;-80
2021/05/29 02:20:53;;;;;;;5.23;2.57;;;11.90;81.90;;;;;;5072074;28;20028;-79
2021/05/29 02:23:24;;;;;;;6.20;2.67;;;11.90;81.90;;;;;;5073099;28;20100;-79
2021/05/29 02:25:51;;;;;;;7.67;3.13;;;11.90;81.90;;;;;;5075374;28;20455;-73
2021/05/29 02:28:18;;;;;;;5.40;2.80;;;11.90;82.20;;;;;;5075764;28;20496;-73
2021/05/29 02:30:45;;;;;;;5.53;2.40;;;11.80;82.20;;;;;;5075602;28;20020;-74
2021/05/29 02:33:10;;;;;;;5.93;2.33;;;11.80;82.10;;;;;;5075546;28;20028;-73
2021/05/29 02:35:37;;;;;;;6.97;2.63;;;11.80;82.30;;;;;;5075604;28;20017;-73
2021/05/29 02:38:04;;;;;;;4.70;2.30;;;11.80;82.40;;;;;;5058972;28;20059;-75
2021/05/29 02:40:30;;;;;;;6.20;2.67;;;11.80;82.50;;;;;;5075511;28;20079;-79
2021/05/29 02:42:56;;;;;;;5.30;2.57;;;11.80;82.50;;;;;;5076662;28;20051;-78
2021/05/29 02:45:22;;;;;;;5.50;2.80;;;11.60;82.40;;;;;;5058656;28;20032;-78
2021/05/29 02:47:48;;;;;;;4.57;2.47;;;11.70;82.30;;;;;;5058805;28;20024;-78
2021/05/29 02:50:14;;;;;;;6.93;2.80;;;11.60;82.20;;;;;;5076598;28;20039;-78
2021/05/29 02:52:41;;;;;;;7.17;2.80;;;11.60;82.40;;;;;;5058822;28;20031;-78
2021/05/29 02:55:10;;;;;;;9.00;3.40;;;11.60;83.10;;;;;;5076624;28;20361;-78
2021/05/29 02:57:36;;;;;;;5.10;2.33;;;11.60;82.60;;;;;;5075229;28;20036;-78
2021/05/29 03:00:09;;;;;;;5.83;2.60;;;11.50;82.50;;;;;;5075083;28;20028;-78
2021/05/29 03:02:35;;;;;;;6.50;3.00;;;11.50;82.60;;;;;;5076353;28;20480;-78
2021/05/29 03:05:00;;;;;;;7.87;3.30;;;11.40;82.60;;;;;;5076101;28;20107;-73
2021/05/29 03:07:26;;;;;;;9.70;3.53;;;11.50;82.70;;;;;;5074951;28;20021;-73
2021/05/29 03:09:51;;;;;;;7.97;3.50;;;11.50;82.70;;;;;;5074885;28;20029;-74
2021/05/29 03:12:17;;;;;;;8.87;3.23;;;11.40;82.70;;;;;;5075007;28;20025;-79
2021/05/29 03:14:43;;;;;;;10.47;2.87;;;11.40;82.80;;;;;;5070455;28;20083;-74
2021/05/29 03:17:08;;;;;;;7.03;3.60;;;11.40;82.90;;;;;;5054346;28;20021;-73
2021/05/29 03:19:34;;;;;;;7.83;3.77;;;11.30;83.10;;;;;;5056151;28;20500;-73
2021/05/29 03:22:00;;;;;;;8.40;3.80;;;11.30;83.10;;;;;;5055040;28;20025;-74
2021/05/29 03:24:26;;;;;;;8.07;3.60;;;11.30;83.30;;;;;;5055108;28;20510;-74
2021/05/29 03:26:51;;;;;;;8.73;4.50;;;11.30;83.20;;;;;;5038703;28;20033;-74
2021/05/29 03:29:17;;;;;;;7.83;3.87;;;11.20;83.30;;;;;;5055052;28;20032;-73
2021/05/29 03:31:43;;;;;;;9.17;4.43;;;11.30;83.40;;;;;;5038191;28;20461;-73
2021/05/29 03:34:09;;;;;;;7.63;3.83;;;11.20;83.30;;;;;;5056170;28;20036;-73
2021/05/29 03:36:35;;;;;;;8.73;4.40;;;11.20;83.40;;;;;;5054890;28;20477;-73
2021/05/29 03:39:00;;;;;;;7.23;4.47;;;11.20;83.40;;;;;;5055864;28;20104;-73
2021/05/29 03:41:26;;;;;;;7.30;4.33;;;11.20;83.40;;;;;;5037986;28;20029;-73
2021/05/29 03:43:52;;;;;;;7.10;3.90;;;11.10;83.40;;;;;;5054604;28;20029;-73
2021/05/29 03:46:17;;;;;;;8.73;4.30;;;11.00;83.50;;;;;;5054903;28;20468;-73
2021/05/29 03:48:43;;;;;;;7.57;4.00;;;11.10;83.70;;;;;;5054387;28;20021;-73
2021/05/29 03:51:09;;;;;;;8.83;4.53;;;11.00;83.80;;;;;;5055963;28;20049;-73
2021/05/29 03:53:34;;;;;;;8.07;3.97;;;11.00;83.90;;;;;;5055627;28;20104;-74
2021/05/29 03:56:00;;;;;;;10.03;4.00;;;11.00;84.00;;;;;;5054696;28;20041;-73
2021/05/29 03:58:26;;;;;;;8.23;3.77;;;10.90;84.10;;;;;;5054199;28;20037;-73
2021/05/29 04:00:51;;;;;;;8.30;4.27;;;10.90;84.10;;;;;;5037205;28;20438;-78
2021/05/29 04:03:20;;;;;;;7.80;4.03;;;10.90;84.30;;;;;;5055150;28;20108;-78
2021/05/29 04:05:45;;;;;;;8.63;4.17;;;10.90;84.50;;;;;;5054043;28;20028;-78
2021/05/29 04:08:11;;;;;;;9.30;5.27;;;10.90;84.60;;;;;;5054014;28;20025;-79
2021/05/29 04:10:37;;;;;;;7.87;3.87;;;10.80;84.70;;;;;;5037678;28;20029;-78
2021/05/29 04:13:03;;;;;;;10.93;4.77;;;10.80;84.80;;;;;;5037814;28;20035;-78
2021/05/29 04:15:29;;;;;;;8.17;4.73;;;10.80;84.90;;;;;;5055020;28;20107;-79
2021/05/29 04:17:56;;;;;;;10.67;5.27;;;10.80;85.00;;;;;;5037172;28;20112;-78
2021/05/29 04:20:24;;;;;;;11.40;6.03;;;10.80;85.20;;;;;;5054188;28;20021;-79
2021/05/29 04:22:50;;;;;;;10.03;5.40;;;10.80;85.30;;;;;;5053740;28;20021;-78
2021/05/29 04:25:18;;;;;;;8.60;4.63;;;10.80;85.40;;;;;;5054673;28;20090;-78
2021/05/29 04:27:45;;;;;;;11.57;6.13;;;10.80;85.60;;;;;;5053502;28;20384;-79
2021/05/29 04:30:14;;;;;;;11.33;5.30;;;10.80;85.80;;;;;;5053603;28;20071;-78
2021/05/29 04:32:40;;;;;;;11.13;5.23;;;10.80;85.90;;;;;;5053428;28;20499;-78
2021/05/29 04:35:07;;;;;;;9.57;5.53;;;10.80;86.00;;;;;;5059813;28;20112;-78
2021/05/29 04:37:32;;;;;;;7.97;4.87;;;10.90;86.20;;;;;;5071213;28;20510;-78
2021/05/29 04:39:58;;;;;;;10.37;5.47;;;10.90;86.30;;;;;;5056601;28;20024;-73
2021/05/29 04:42:24;;;;;;;9.93;5.47;;;10.90;86.40;;;;;;5074120;28;20038;-74
2021/05/29 04:44:49;;;;;;;9.50;5.27;;;10.90;86.50;;;;;;5072528;28;20029;-73
2021/05/29 04:47:15;;;;;;;11.90;5.97;;;11.00;86.60;;;;;;5074721;28;20410;-74
2021/05/29 04:49:41;;;;;;;10.87;5.67;;;11.00;86.70;;;;;;5073246;28;20074;-78
2021/05/29 04:52:07;;;;;;;12.37;6.37;;;11.10;86.80;;;;;;5074596;28;20040;-78
2021/05/29 04:54:33;;;;;;;9.90;5.50;;;11.10;86.90;;;;;;5056451;28;20032;-78
2021/05/29 04:56:59;;;;;;;10.77;6.43;;;11.20;87.10;;;;;;5074238;28;20064;-78
2021/05/29 04:59:25;;;;;;;11.27;5.40;;;11.20;87.10;;;;;;5074398;28;20029;-78
2021/05/29 05:01:50;;;;;;;10.63;6.03;;;11.20;87.20;;;;;;5074162;28;20111;-78
2021/05/29 05:04:17;;;;;;;11.60;5.97;;;11.30;87.20;;;;;;5072845;28;20025;-78
2021/05/29 05:06:43;;;;;;;11.47;6.30;;;11.40;87.20;;;;;;5074450;28;20050;-74
2021/05/29 05:09:08;;;;;;;14.40;6.33;;;11.40;87.30;;;;;;5074454;28;20028;-73
2021/05/29 05:11:34;;;;;;;13.00;6.37;;;11.40;87.30;;;;;;5056297;28;20017;-74
2021/05/29 05:14:01;;;;;;;11.07;6.63;;;11.50;87.30;;;;;;5056550;28;20557;-74
2021/05/29 05:16:27;;;;;;;11.90;6.13;;;11.50;87.90;;;;;;5073643;28;20031;-74
2021/05/29 05:18:53;;;;;;;11.00;6.17;;;11.50;87.10;;;;;;5056268;28;20021;-74
2021/05/29 05:21:20;;;;;;;15.57;7.13;;;11.60;87.20;;;;;;5072997;28;20027;-74
2021/05/29 05:23:49;;;;;;;13.83;7.20;;;11.70;87.30;;;;;;5072809;28;20025;-74
2021/05/29 05:26:15;;;;;;;13.17;7.53;;;11.70;87.40;;;;;;5072686;28;20112;-74
2021/05/29 05:28:40;;;;;;;13.00;6.80;;;11.70;87.30;;;;;;5072509;28;20072;-74
2021/05/29 05:31:06;;;;;;;13.67;7.23;;;11.70;87.80;;;;;;5072417;28;20028;-74
2021/05/29 05:33:45;;;;;;;13.80;7.37;;;11.80;87.20;;;;;;5056006;28;20028;-74
2021/05/29 05:36:12;;;;;;;12.67;8.37;;;11.80;87.30;;;;;;5063843;28;20104;-74
2021/05/29 05:38:39;;;;;;;14.57;8.73;;;11.90;87.20;;;;;;5053320;28;20082;-74
2021/05/29 05:41:06;;;;;;;14.90;8.20;;;11.90;87.30;;;;;;5051771;28;20027;-74
2021/05/29 05:43:33;;;;;;;14.27;9.17;;;11.90;87.20;;;;;;5053486;28;20540;-74
2021/05/29 05:45:59;;;;;;;14.23;8.57;;;12.00;87.30;;;;;;5052093;28;20025;-74
2021/05/29 05:48:24;;;;;;;12.80;7.87;;;12.00;87.20;;;;;;5053230;28;20420;-74
2021/05/29 05:50:55;;;;;;;11.77;7.87;;;12.10;87.30;;;;;;5053149;28;20029;-74
2021/05/29 05:53:22;;;;;;;13.27;8.53;;;12.20;87.30;;;;;;5051908;28;20021;-74
2021/05/29 05:55:58;;;;;;;14.70;8.20;;;12.20;87.20;;;;;;5051527;28;20507;-73
2021/05/29 05:58:24;;;;;;;14.52;8.30;;;12.20;87.50;;;;;;5071558;28;20023;-73
2021/05/29 06:00:50;;;;;;;15.32;8.75;;;12.30;87.30;;;;;;5072758;28;20033;-80
2021/05/29 06:03:15;;;;;;;14.27;8.50;;;12.30;87.20;;;;;;5055409;28;20020;-77
2021/05/29 06:05:41;;;;;;;15.48;8.57;;;12.40;87.00;;;;;;5073513;28;20033;-77
2021/05/29 06:08:07;;;;;;;14.30;8.05;;;12.40;87.00;;;;;;5039000;28;20048;-74
2021/05/29 06:10:32;;;;;;;16.30;9.05;;;12.40;86.90;;;;;;5071962;28;20103;-77
2021/05/29 06:12:58;;;;;;;15.43;8.10;;;12.50;86.80;;;;;;5073461;28;20033;-77
2021/05/29 06:20:52;;;;;;;9.98;5.95;;;12.60;86.40;;;;;;5072349;28;20005;-78
2021/05/29 06:23:18;;;;;;;11.00;6.72;;;12.60;86.20;;;;;;5071917;28;20075;-78
2021/05/29 06:25:44;;;;;;;10.70;6.90;;;12.60;86.00;;;;;;5071821;28;20504;-77
2021/05/29 06:28:10;;;;;;;13.15;7.40;;;12.70;86.00;;;;;;5055227;28;20052;-78
2021/05/29 06:30:37;;;;;;;13.07;7.20;;;12.70;86.00;;;;;;5055532;28;20030;-78
2021/05/29 06:33:04;;;;;;;13.25;7.78;;;12.80;85.90;;;;;;5055098;28;20029;-78
2021/05/29 06:35:30;;;;;;;11.73;7.65;;;12.80;85.70;;;;;;5055304;28;20503;-77
2021/05/29 06:37:55;;;;;;;15.50;7.65;;;12.90;85.60;;;;;;5071647;28;20032;-79
2021/05/29 06:40:21;;;;;;;13.45;7.53;;;12.90;85.30;;;;;;5035080;28;20025;-78
2021/05/29 06:42:46;;;;;;;13.63;7.53;;;13.00;85.30;;;;;;5063981;28;20032;-77
2021/05/29 06:45:13;;;;;;;17.00;8.65;;;13.00;85.10;;;;;;5052822;28;20025;-78
2021/05/29 06:47:39;;;;;;;11.10;6.80;;;13.10;85.00;;;;;;5051586;28;20017;-77
2021/05/29 06:50:09;;;;;;;12.23;6.63;;;13.10;84.70;;;;;;5051604;28;20066;-79
2021/05/29 06:52:37;;;;;;;11.55;6.22;;;13.20;84.70;;;;;;5053510;28;20051;-74
2021/05/29 07:00:32;;;;;;;12.57;6.78;;;13.20;84.30;;;;;;5053755;28;20036;-78
2021/05/29 07:02:58;;;;;;;9.70;5.85;;;13.30;84.10;;;;;;5053357;28;20021;-78
2021/05/29 07:05:23;;;;;;;11.55;6.68;;;13.30;84.70;;;;;;5063367;28;20029;-78
2021/05/29 07:07:49;;;;;;;13.63;7.20;;;13.40;84.00;;;;;;5056582;28;20059;-74
2021/05/29 07:10:15;;;;;;;11.55;7.35;;;13.40;83.90;;;;;;5054978;28;20427;-74
2021/05/29 07:12:40;;;;;;;11.52;6.90;;;13.50;83.80;;;;;;5054143;28;20037;-74
2021/05/29 07:15:08;;;;;;;12.82;7.85;;;13.50;83.60;;;;;;5055182;28;20389;-75
2021/05/29 07:17:38;;;;;;;11.85;7.10;;;13.50;83.30;;;;;;5071576;28;20044;-75
2021/05/29 07:20:04;;;;;;;13.07;7.38;;;13.60;83.20;;;;;;5056136;28;20021;-75
2021/05/29 07:22:30;;;;;;;11.13;6.97;;;13.60;83.10;;;;;;5055004;28;20388;-75
2021/05/29 07:24:55;;;;;;;11.35;7.20;;;13.70;83.00;;;;;;5037590;28;20041;-74
2021/05/29 07:27:21;;;;;;;10.13;6.22;;;13.70;82.90;;;;;;5075017;28;20037;-75
2021/05/29 07:29:46;;;;;;;14.10;8.02;;;13.80;82.70;;;;;;5076255;28;20031;-75
2021/05/29 07:32:12;;;;;;;13.88;8.05;;;13.80;82.50;;;;;;5058151;28;20021;-74
2021/05/29 07:34:37;;;;;;;12.95;8.30;;;13.90;82.50;;;;;;5058382;28;20055;-74
2021/05/29 07:37:03;;;;;;;16.08;9.27;;;13.90;82.40;;;;;;5048920;28;20558;-74
2021/05/29 07:39:30;;;;;;;15.90;9.48;;;14.00;82.30;;;;;;5056231;28;20036;-76
2021/05/29 07:41:55;;;;;;;13.40;8.75;;;14.10;82.30;;;;;;5056330;28;20017;-74
2021/05/29 07:44:21;;;;;;;15.93;9.10;;;14.10;82.10;;;;;;5021740;28;20416;-73
2021/05/29 07:46:48;;;;;;;12.45;8.45;;;14.20;82.10;;;;;;5054901;28;20472;-75
2021/05/29 07:49:13;;;;;;;12.30;8.20;;;14.20;82.00;;;;;;5038132;28;20541;-75
2021/05/29 07:51:39;;;;;;;16.05;8.55;;;14.30;81.90;;;;;;5055645;28;20025;-74
2021/05/29 07:54:05;;;;;;;15.25;9.25;;;14.30;81.70;;;;;;5054596;28;20116;-73
2021/05/29 07:56:31;;;;;;;15.48;8.32;;;14.40;81.60;;;;;;5054607;28;20030;-78
2021/05/29 07:58:59;;;;;;;14.80;7.65;;;14.50;81.50;;;;;;5054564;28;20045;-75
2021/05/29 08:01:24;;;;;;;11.68;7.35;;;14.50;81.00;;;;;;5055389;28;20082;-77
2021/05/29 08:03:50;;;;;;;12.80;7.65;;;14.50;80.70;;;;;;5037767;28;20112;-76
2021/05/29 08:06:20;;;;;;;11.63;6.95;;;14.50;80.60;;;;;;5037385;28;20039;-75
2021/05/29 08:08:46;;;;;;;12.13;7.43;;;14.60;80.70;;;;;;5054079;28;20021;-77
2021/05/29 08:11:20;;;;;;;13.48;6.72;;;14.70;80.60;;;;;;5037700;28;20032;-80
2021/05/29 08:13:45;;;;;;;9.93;6.05;;;14.80;80.50;;;;;;5053763;28;20074;-79
2021/05/29 08:16:13;;;;;;;9.63;6.07;;;14.90;80.40;;;;;;5053912;28;20041;-81
2021/05/29 08:18:39;;;;;;;12.02;6.15;;;15.00;80.00;;;;;;5037338;28;20124;-76
2021/05/29 08:21:05;;;;;;;11.18;5.97;;;15.10;79.80;;;;;;5054855;28;20028;-75
2021/05/29 08:23:30;;;;;;;10.07;5.10;;;15.20;79.70;;;;;;5053659;28;20414;-75
2021/05/29 08:25:56;;;;;;;9.27;5.45;;;15.30;79.30;;;;;;5053720;28;20137;-77
2021/05/29 08:28:22;;;;;;;9.75;5.90;;;15.30;78.60;;;;;;5020432;28;20068;-75
2021/05/29 08:30:48;;;;;;;11.85;5.95;;;15.40;78.50;;;;;;5053785;28;20083;-75
2021/05/29 08:33:13;;;;;;;10.88;5.55;;;15.50;78.50;;;;;;5054039;28;20059;-75
2021/05/29 08:35:39;;;;;;;9.43;5.30;;;15.60;78.40;;;;;;5073689;28;20032;-75
2021/05/29 08:38:05;;;;;;;8.40;5.18;;;15.70;78.10;;;;;;5073433;28;20029;-74
2021/05/29 08:40:32;;;;;;;8.32;4.88;;;15.80;77.70;;;;;;5073480;28;20032;-75
2021/05/29 08:42:58;;;;;;;7.43;4.25;;;15.90;77.10;;;;;;5073347;28;20031;-76
2021/05/29 08:45:24;;;;;;;8.13;4.93;;;16.00;76.00;;;;;;5056619;28;20021;-75
2021/05/29 08:47:50;;;;;;;9.23;4.22;;;16.10;75.10;;;;;;5073228;28;20033;-79
2021/05/29 08:50:16;;;;;;;9.77;5.25;;;16.10;74.40;;;;;;5073053;28;20395;-78
2021/05/29 08:52:42;;;;;;;7.50;4.47;;;16.20;74.10;;;;;;5073854;28;20044;-78
2021/05/29 08:55:10;;;;;;;9.48;4.70;;;16.30;74.10;;;;;;5074427;28;20488;-78
2021/05/29 08:57:37;;;;;;;8.98;4.10;;;16.30;73.40;;;;;;5073123;28;20029;-78
2021/05/29 09:00:06;;;;;;;7.22;3.85;;;16.40;73.90;;;;;;5056584;28;20059;-79
2021/05/29 09:02:32;;;;;;;6.97;4.00;;;16.60;73.70;;;;;;5073463;28;20469;-78
2021/05/29 09:05:10;;;;;;;6.00;3.83;;;16.70;73.60;;;;;;5074184;28;20036;-79
2021/05/29 09:07:35;;;;;;;7.22;4.05;;;16.90;73.50;;;;;;5072869;28;20355;-78
2021/05/29 09:10:22;;;;;;;5.82;3.30;;;17.10;73.20;;;;;;5074141;28;20535;-77
2021/05/29 09:13:17;;;;;;;8.73;4.03;;;17.30;72.30;;;;;;5072635;28;20086;-77
2021/05/29 09:15:55;;;;;;;8.82;4.53;;;17.50;71.30;;;;;;5073795;28;20068;-79
2021/05/29 09:18:34;;;;;;;7.03;3.58;;;17.60;70.50;;;;;;5072392;28;20021;-80
2021/05/29 09:21:31;;;;;;;7.97;3.75;;;17.70;70.30;;;;;;5073926;28;20020;-79
2021/05/29 09:24:13;;;;;;;6.90;3.22;;;17.80;70.30;;;;;;5072904;28;20024;-79
2021/05/29 09:26:55;;;;;;;7.35;3.47;;;18.00;70.40;;;;;;5073539;28;20377;-79
2021/05/29 09:29:30;;;;;;;5.97;3.40;;;18.10;70.10;;;;;;5072343;28;20028;-76
2021/05/29 09:31:56;;;;;;;9.10;4.03;;;18.40;69.30;;;;;;5072950;28;20036;-75
2021/05/29 09:34:40;;;;;;;6.80;3.50;;;18.50;69.00;;;;;;5073269;28;20365;-75
2021/05/29 09:37:15;;;;;;;7.38;3.25;;;18.70;68.10;;;;;;5074038;28;20123;-76
2021/05/29 09:39:48;;;;;;;6.05;3.75;;;18.90;67.20;;;;;;5072686;28;20132;-76
2021/05/29 09:42:15;;;;;;;;;;;19.00;66.80;;;;;;5073180;28;20025;-76
2021/05/29 09:44:41;;;;;;;9.23;3.67;;;19.10;66.40;;;;;;5072709;28;19998;-76
2021/05/29 09:47:12;;;;;;;7.38;3.13;;;19.30;66.50;;;;;;5072570;28;20025;-76
2021/05/29 09:49:53;;;;;;;8.27;4.00;;;19.30;65.60;;;;;;5072635;28;20123;-76
2021/05/29 09:52:22;;;;;;;6.25;3.70;;;19.40;65.20;;;;;;5072823;28;20464;-76
2021/05/29 09:54:52;;;;;;;5.15;3.10;;;19.60;65.10;;;;;;5072056;28;20024;-76
2021/05/29 09:57:18;;;;;;;6.38;3.63;;;19.70;64.50;;;;;;5043060;28;20033;-76
2021/05/29 10:00:01;;;;;;;7.57;2.95;;;19.80;64.30;;;;;;5052095;28;20013;-76
2021/05/29 10:02:27;;;;;;;6.20;3.92;;;20.00;64.00;;;;;;5052993;28;20025;-77
2021/05/29 10:04:56;;;;;;;8.45;3.63;;;20.10;64.10;;;;;;5051598;28;20025;-73
2021/05/29 10:07:39;;;;;;;6.75;3.47;;;20.20;63.10;;;;;;5054289;28;20025;-73
2021/05/29 10:10:06;;;;;;;7.63;4.38;;;20.30;62.20;;;;;;5060845;28;20111;-72
2021/05/29 10:12:31;;;;;;;5.60;3.22;;;20.40;61.60;;;;;;5065081;28;20028;-73
2021/05/29 10:14:57;;;;;;;5.97;3.03;;;20.50;61.30;;;;;;5052056;28;20031;-74
2021/05/29 10:17:24;;;;;;;6.35;3.10;;;20.60;61.20;;;;;;5052227;28;20025;-74
2021/05/29 10:19:50;;;;;;;8.30;3.15;;;20.70;60.50;;;;;;5053339;28;20532;-72
2021/05/29 10:22:17;;;;;;;6.70;2.72;;;20.80;60.10;;;;;;5053692;28;20025;-72
2021/05/29 10:24:44;;;;;;;4.95;3.03;;;20.80;59.90;;;;;;5052980;28;20021;-73
2021/05/29 10:27:24;;;;;;;5.70;3.00;;;21.00;59.40;;;;;;5061306;28;20049;-72
2021/05/29 10:29:58;;;;;;;9.88;3.00;;;21.20;58.90;;;;;;5056194;28;20029;-80
2021/05/29 10:32:23;;;;;;;10.70;2.78;;;21.30;58.30;;;;;;5055272;28;20025;-74
2021/05/29 10:34:58;;;;;;;5.43;2.47;;;21.30;58.20;;;;;;5067109;28;20051;-80
2021/05/29 10:37:38;;;;;;;5.18;2.53;;;21.40;58.20;;;;;;5071686;28;20025;-81
2021/05/29 10:40:23;;;;;;;5.00;2.28;;;21.60;57.80;;;;;;5062203;28;20032;-78
2021/05/29 10:43:09;;;;;;;4.13;2.05;;;21.70;57.30;;;;;;5052243;28;20108;-80
2021/05/29 10:45:57;;;;;;;3.70;1.90;;;21.80;57.00;;;;;;5054774;28;20097;-78
2021/05/29 10:48:24;;;;;;;4.00;2.10;;;22.00;56.50;;;;;;5056447;28;20033;-79
2021/05/29 10:50:56;;;;;;;7.75;2.40;;;22.10;56.50;;;;;;5055292;28;20025;-76
2021/05/29 10:53:42;;;;;;;4.82;2.13;;;22.10;56.30;;;;;;5056617;28;20087;-79
2021/05/29 10:56:17;;;;;;;6.57;1.65;;;22.30;55.90;;;;;;5056499;28;20408;-80
2021/05/29 10:58:55;;;;;;;3.40;1.75;;;22.50;55.70;;;;;;5055157;28;20032;-78
2021/05/29 11:01:21;;;;;;;4.10;1.48;;;22.70;54.70;;;;;;5054683;28;20473;-78
2021/05/29 11:04:07;;;;;;;4.30;1.70;;;22.80;54.40;;;;;;5055370;28;20017;-79
2021/05/29 11:06:33;;;;;;;2.90;1.58;;;22.90;53.80;;;;;;5055954;28;20033;-76
2021/05/29 11:09:01;;;;;;;3.33;1.42;;;23.00;53.60;;;;;;5056132;28;20044;-79
2021/05/29 11:11:39;;;;;;;3.60;1.60;;;23.00;53.20;;;;;;5051733;28;20437;-77
2021/05/29 11:14:08;;;;;;;3.25;1.67;;;23.00;53.10;;;;;;5076232;28;20028;-78
2021/05/29 11:16:49;;;;;;;4.60;1.60;;;23.10;53.20;;;;;;5076058;28;20032;-77
2021/05/29 11:19:22;;;;;;;1.92;1.23;;;23.30;52.80;;;;;;5074788;28;20488;-77
2021/05/29 11:22:06;;;;;;;4.85;1.63;;;23.50;52.60;;;;;;5074557;28;20036;-76
2021/05/29 11:24:33;;;;;;;3.63;1.50;;;23.70;51.60;;;;;;5074485;28;20024;-77
2021/05/29 11:27:00;;;;;;;3.30;1.30;;;23.90;51.60;;;;;;5074326;28;20502;-76
2021/05/29 11:29:26;;;;;;;4.57;1.60;;;24.10;51.20;;;;;;5075880;28;20353;-77
2021/05/29 11:31:53;;;;;;;3.17;1.73;;;24.30;50.80;;;;;;5057823;28;20073;-80
2021/05/29 11:34:19;;;;;;;3.33;1.80;;;24.50;50.30;;;;;;5074481;28;20025;-78
2021/05/29 11:36:45;;;;;;;3.55;1.52;;;24.60;49.90;;;;;;5074338;28;20102;-76
2021/05/29 11:39:19;;;;;;;7.00;1.98;;;24.60;49.70;;;;;;5075109;28;20487;-78
2021/05/29 11:41:44;;;;;;;8.93;1.40;;;24.70;49.50;;;;;;5058447;28;20025;-78
2021/05/29 11:44:24;;;;;;;4.00;1.60;;;24.90;49.30;;;;;;5075773;28;20017;-78
2021/05/29 11:46:50;;;;;;;4.57;1.38;;;25.10;48.40;;;;;;5075488;28;20047;-76
2021/05/29 11:49:16;;;;;;;4.00;1.55;;;25.30;48.50;;;;;;5074446;28;20025;-78
2021/05/29 11:51:45;;;;;;;3.35;1.17;;;25.40;48.50;;;;;;5074339;28;20123;-79
2021/05/29 11:54:13;;;;;;;3.63;1.15;;;25.60;47.30;;;;;;5074084;28;20353;-79
2021/05/29 11:56:48;;;;;;;2.50;1.13;;;25.70;47.00;;;;;;5073043;28;20079;-78
2021/05/29 11:59:16;;;;;;;3.60;1.08;;;25.90;46.50;;;;;;5075429;28;20055;-79
2021/05/29 12:01:43;;;;;;;3.75;0.98;;;26.00;46.30;;;;;;5075241;28;20020;-78
2021/05/29 12:04:11;;;;;;;3.13;1.30;;;26.00;45.80;;;;;;5075442;28;20033;-79
2021/05/29 12:06:56;;;;;;;3.05;1.20;;;26.10;45.50;;;;;;5075266;28;20046;-79
2021/05/29 12:09:26;;;;;;;3.00;1.10;;;26.20;45.20;;;;;;5073821;28;20387;-77
2021/05/29 12:12:00;;;;;;;3.40;1.20;;;26.30;45.30;;;;;;5069822;28;20017;-78
2021/05/29 12:14:34;;;;;;;2.58;1.00;;;26.50;45.00;;;;;;5055063;28;20029;-78
2021/05/29 12:17:03;;;;;;;3.08;0.98;;;26.80;44.90;;;;;;5054927;28;20025;-80
2021/05/29 12:19:38;;;;;;;3.67;1.10;;;27.00;44.20;;;;;;5055109;28;20025;-78
2021/05/29 12:22:12;;;;;;;3.00;1.00;;;27.10;43.80;;;;;;5053726;28;20017;-79
2021/05/29 12:25:02;;;;;;;3.95;1.02;;;27.20;43.80;;;;;;5053642;28;20056;-78
2021/05/29 12:27:34;;;;;;;3.15;1.30;;;27.10;42.70;;;;;;5055103;28;20041;-79
2021/05/29 12:30:07;;;;;;;4.60;1.08;;;27.00;43.00;;;;;;5054792;28;20025;-79
2021/05/29 12:32:39;;;;;;;3.22;1.13;;;27.00;42.90;;;;;;5053694;28;20151;-78
2021/05/29 12:35:11;;;;;;;1.80;1.00;;;27.10;42.70;;;;;;5055304;28;20025;-80
2021/05/29 12:37:37;;;;;;;3.25;1.13;;;27.30;42.50;;;;;;5072673;28;20051;-79
2021/05/29 12:40:11;;;;;;;2.58;0.95;;;27.40;42.30;;;;;;5052056;28;20028;-79
2021/05/29 12:42:40;;;;;;;2.63;0.95;;;27.40;42.00;;;;;;5053176;28;20025;-78
2021/05/29 12:45:22;;;;;;;3.35;0.90;;;27.30;41.70;;;;;;5065057;28;20546;-78
2021/05/29 12:47:52;;;;;;;1.90;0.90;;;27.20;41.50;;;;;;5053165;28;20025;-79
2021/05/29 12:50:19;;;;;;;1.73;0.70;;;27.20;41.60;;;;;;5054092;28;20104;-79
2021/05/29 12:52:45;;;;;;;2.75;1.13;;;27.30;41.70;;;;;;5053075;28;20025;-80
2021/05/29 12:55:22;;;;;;;3.30;1.13;;;27.60;41.60;;;;;;5053360;28;20091;-80
2021/05/29 12:57:48;;;;;;;3.20;1.20;;;27.90;41.50;;;;;;5054160;28;20476;-80
2021/05/29 13:00:30;;;;;;;3.13;0.80;;;27.90;41.50;;;;;;5052946;28;20021;-79